Time;durP1;ratioP1;P1;durP2;ratioP2;P2;SDS_P1;SDS_P2;PMS_P1;PMS_P2;Temp;Humidity;BMP_temperature;BMP_pressure;BME280_temperature;BME280_humidity;BME280_pressure;Samples;Min_cycle;Max_cycle;Signal;HPM_P1;HPM_P2
2021/09/12 00:00:32;;;;;;;41.00;14.20;;;16.00;99.90;;;;;;4923805;28;20353;-94
2021/09/12 00:02:58;;;;;;;16.20;13.37;;;16.00;99.90;;;;;;4931906;28;20191;-95
2021/09/12 00:05:26;;;;;;;28.83;13.87;;;15.90;99.90;;;;;;4945374;28;20202;-94
2021/09/12 00:07:52;;;;;;;14.73;12.93;;;15.90;99.90;;;;;;4931139;29;20582;-94
2021/09/12 00:10:18;;;;;;;37.53;14.90;;;15.90;99.90;;;;;;4930610;29;20452;-94
2021/09/12 00:12:43;;;;;;;38.73;13.50;;;15.90;99.90;;;;;;4928475;28;20229;-95
2021/09/12 00:15:13;;;;;;;43.03;13.20;;;15.80;99.90;;;;;;4930759;29;20198;-96
2021/09/12 00:17:39;;;;;;;22.20;12.60;;;15.80;99.90;;;;;;4932126;29;20209;-95
2021/09/12 00:20:06;;;;;;;26.67;13.47;;;15.80;99.90;;;;;;4931098;29;20431;-95
2021/09/12 00:22:43;;;;;;;37.20;13.33;;;15.70;99.90;;;;;;4927261;29;20195;-94
2021/09/12 00:25:09;;;;;;;35.27;11.93;;;15.70;99.90;;;;;;4928554;28;20437;-93
2021/09/12 00:27:35;;;;;;;48.73;11.83;;;15.70;99.90;;;;;;4943850;28;20478;-96
2021/09/12 00:30:03;;;;;;;46.13;12.67;;;15.50;99.90;;;;;;4942659;28;20451;-95
2021/09/12 00:32:28;;;;;;;13.97;10.17;;;15.40;99.90;;;;;;4931412;29;20459;-95
2021/09/12 00:34:54;;;;;;;20.00;10.60;;;15.30;99.90;;;;;;4928696;29;20446;-95
2021/09/12 00:37:20;;;;;;;23.13;11.73;;;15.30;99.90;;;;;;4932960;28;20242;-95
2021/09/12 00:39:46;;;;;;;22.07;10.63;;;15.30;99.90;;;;;;4934406;28;20279;-95
2021/09/12 00:42:14;;;;;;;22.37;10.73;;;15.30;99.90;;;;;;4930861;29;20190;-94
2021/09/12 00:44:40;;;;;;;33.60;10.10;;;15.20;99.90;;;;;;4929094;28;20271;-96
2021/09/12 00:47:12;;;;;;;12.87;10.60;;;15.20;99.90;;;;;;4932997;29;20573;-94
2021/09/12 00:49:39;;;;;;;31.07;10.80;;;15.20;99.90;;;;;;4928649;28;20420;-93
2021/09/12 00:52:11;;;;;;;44.50;12.20;;;15.20;99.90;;;;;;4925436;29;20438;-94
2021/09/12 00:54:37;;;;;;;14.23;9.80;;;15.20;99.90;;;;;;4928298;29;20489;-94
2021/09/12 00:57:09;;;;;;;33.70;10.80;;;15.10;99.90;;;;;;4928869;29;20479;-94
2021/09/12 00:59:38;;;;;;;28.60;11.27;;;15.10;99.90;;;;;;4926269;29;20466;-93
2021/09/12 01:02:06;;;;;;;16.53;10.03;;;15.00;99.90;;;;;;4933706;29;20438;-93
2021/09/12 01:04:33;;;;;;;25.03;10.37;;;15.00;99.90;;;;;;4931257;28;20483;-93
2021/09/12 01:07:01;;;;;;;9.27;8.37;;;15.00;99.90;;;;;;4926635;28;20866;-93
2021/09/12 01:09:27;;;;;;;30.70;9.97;;;14.90;99.90;;;;;;4936545;28;20451;-92
2021/09/12 01:11:57;;;;;;;10.60;8.80;;;14.90;99.90;;;;;;4931460;28;20454;-93
2021/09/12 01:14:25;;;;;;;13.93;8.53;;;14.90;99.90;;;;;;4930878;28;20200;-95
2021/09/12 01:16:51;;;;;;;11.93;8.50;;;14.90;99.90;;;;;;4931514;29;20473;-95
2021/09/12 01:19:17;;;;;;;18.13;8.33;;;14.90;99.90;;;;;;4927832;29;20984;-95
2021/09/12 01:21:44;;;;;;;20.47;10.00;;;14.90;99.90;;;;;;4931065;29;20195;-95
2021/09/12 01:24:10;;;;;;;20.67;9.20;;;14.80;99.90;;;;;;4926998;29;20533;-92
2021/09/12 01:26:36;;;;;;;33.57;10.33;;;14.80;99.90;;;;;;4930549;28;20863;-96
2021/09/12 01:29:01;;;;;;;47.20;10.83;;;14.90;99.90;;;;;;4933698;29;20442;-96
2021/09/12 01:31:29;;;;;;;28.07;9.03;;;14.90;99.90;;;;;;4933930;29;20199;-95
2021/09/12 01:33:56;;;;;;;13.63;9.23;;;14.90;99.90;;;;;;4932682;29;20199;-94
2021/09/12 01:36:22;;;;;;;25.60;10.20;;;14.90;99.90;;;;;;4931535;28;20511;-95
2021/09/12 01:38:50;;;;;;;28.87;9.57;;;14.90;99.90;;;;;;4931048;28;20455;-95
2021/09/12 01:41:16;;;;;;;37.67;10.67;;;15.00;99.90;;;;;;4926963;28;20454;-95
2021/09/12 01:43:54;;;;;;;32.30;10.50;;;14.90;99.90;;;;;;4930505;29;20455;-94
2021/09/12 01:46:21;;;;;;;13.70;9.43;;;14.80;99.90;;;;;;4933590;29;20199;-93
2021/09/12 01:48:47;;;;;;;13.30;8.80;;;14.80;99.90;;;;;;4940531;28;20553;-93
2021/09/12 01:51:13;;;;;;;20.33;9.27;;;14.80;99.90;;;;;;4928923;29;20539;-93
2021/09/12 01:53:42;;;;;;;35.70;10.30;;;14.80;99.90;;;;;;4929184;29;20455;-92
2021/09/12 01:56:08;;;;;;;41.43;9.10;;;14.70;99.90;;;;;;4930694;28;20524;-92
2021/09/12 01:58:33;;;;;;;32.10;8.90;;;14.60;99.90;;;;;;4933247;29;20443;-94
2021/09/12 02:00:59;;;;;;;59.53;9.10;;;14.50;99.90;;;;;;4924198;28;20199;-93
2021/09/12 02:03:25;;;;;;;18.50;8.10;;;14.40;99.90;;;;;;4925875;28;20202;-94
2021/09/12 02:05:51;;;;;;;20.33;8.43;;;14.40;99.90;;;;;;4923674;28;20569;-94
2021/09/12 02:08:17;;;;;;;8.67;7.87;;;14.40;99.90;;;;;;4927493;29;20202;-94
2021/09/12 02:10:43;;;;;;;20.10;8.50;;;14.40;99.90;;;;;;4924628;28;20446;-95
2021/09/12 02:13:10;;;;;;;28.73;8.77;;;14.40;99.90;;;;;;4944890;28;20286;-95
2021/09/12 02:15:36;;;;;;;17.57;8.37;;;14.40;99.90;;;;;;4930240;29;20510;-94
2021/09/12 02:18:03;;;;;;;18.63;9.03;;;14.40;99.90;;;;;;4927722;28;20498;-94
2021/09/12 02:20:29;;;;;;;13.00;8.80;;;14.50;99.90;;;;;;4927854;28;20198;-93
2021/09/12 02:22:55;;;;;;;29.00;9.40;;;14.40;99.90;;;;;;4929737;29;20459;-94
2021/09/12 02:25:20;;;;;;;17.93;8.07;;;14.30;99.90;;;;;;4930544;28;22360;-93
2021/09/12 02:27:49;;;;;;;20.73;9.03;;;14.20;99.90;;;;;;4923573;28;20795;-93
2021/09/12 02:30:17;;;;;;;11.63;7.60;;;14.20;99.90;;;;;;4925639;29;20191;-94
2021/09/12 02:32:45;;;;;;;15.40;8.60;;;14.30;99.90;;;;;;4928238;28;21268;-94
2021/09/12 02:35:11;;;;;;;11.93;8.20;;;14.20;99.90;;;;;;4928534;28;20265;-95
2021/09/12 02:37:39;;;;;;;22.57;9.60;;;14.20;99.90;;;;;;4928886;29;20439;-94
2021/09/12 02:40:05;;;;;;;28.60;9.40;;;14.20;99.90;;;;;;4948047;28;21122;-95
2021/09/12 02:42:31;;;;;;;20.63;9.27;;;14.20;99.90;;;;;;4933451;28;20636;-93
2021/09/12 02:44:57;;;;;;;22.60;9.00;;;14.20;99.90;;;;;;4929310;28;20454;-93
2021/09/12 02:47:30;;;;;;;16.13;8.63;;;14.20;99.90;;;;;;4928365;28;20221;-96
2021/09/12 02:49:56;;;;;;;21.60;8.13;;;14.20;99.90;;;;;;4930941;28;21004;-95
2021/09/12 02:52:21;;;;;;;24.27;8.77;;;14.20;99.90;;;;;;4929787;28;20730;-95
2021/09/12 02:54:47;;;;;;;18.20;7.70;;;14.30;99.90;;;;;;4930477;29;20558;-94
2021/09/12 02:57:13;;;;;;;8.63;7.27;;;14.20;99.90;;;;;;4930294;29;20199;-95
2021/09/12 02:59:38;;;;;;;13.13;7.47;;;14.20;99.90;;;;;;4928265;29;20925;-95
2021/09/12 03:02:04;;;;;;;13.70;8.47;;;14.20;99.90;;;;;;4929952;29;20200;-92
2021/09/12 03:04:30;;;;;;;40.70;8.83;;;14.10;99.90;;;;;;4933183;28;20206;-92
2021/09/12 03:06:55;;;;;;;30.63;8.93;;;14.00;99.90;;;;;;4930271;28;20222;-92
2021/09/12 03:09:21;;;;;;;22.97;8.97;;;13.90;99.90;;;;;;4932066;28;20187;-93
2021/09/12 03:11:47;;;;;;;23.53;8.50;;;13.90;99.90;;;;;;4933506;28;20219;-93
2021/09/12 03:14:12;;;;;;;27.23;7.83;;;13.80;99.90;;;;;;4930837;28;20183;-92
2021/09/12 03:16:38;;;;;;;38.13;9.30;;;13.80;99.90;;;;;;4925692;28;20576;-92
2021/09/12 03:19:04;;;;;;;42.27;8.97;;;13.70;99.90;;;;;;4931288;29;20258;-93
2021/09/12 03:21:29;;;;;;;35.83;8.90;;;13.70;99.90;;;;;;4929253;28;20199;-92
2021/09/12 03:23:55;;;;;;;26.13;8.90;;;13.70;99.90;;;;;;4947990;28;20183;-93
2021/09/12 03:26:21;;;;;;;7.80;7.03;;;13.80;99.90;;;;;;4948012;28;20217;-93
2021/09/12 03:28:46;;;;;;;12.50;8.40;;;13.90;99.90;;;;;;4929352;29;20183;-92
2021/09/12 03:31:12;;;;;;;21.53;8.87;;;13.90;99.90;;;;;;4933128;29;20277;-91
2021/09/12 03:33:46;;;;;;;34.40;9.90;;;14.00;99.90;;;;;;4942318;28;20187;-92
2021/09/12 03:36:12;;;;;;;28.73;9.90;;;14.00;99.90;;;;;;4925001;29;20222;-92
2021/09/12 03:38:38;;;;;;;33.90;10.07;;;13.90;99.90;;;;;;4926380;28;20451;-92
2021/09/12 03:41:08;;;;;;;19.70;9.57;;;13.80;99.90;;;;;;4941850;28;20243;-92
2021/09/12 03:43:34;;;;;;;11.33;8.27;;;13.80;99.90;;;;;;4946051;28;20830;-92
2021/09/12 03:46:00;;;;;;;18.57;9.93;;;13.80;99.90;;;;;;4939962;28;20478;-93
2021/09/12 03:48:25;;;;;;;45.07;10.57;;;13.80;99.90;;;;;;4927001;28;20210;-92
2021/09/12 03:50:51;;;;;;;29.77;9.83;;;13.80;99.90;;;;;;4931764;29;20550;-92
2021/09/12 03:53:17;;;;;;;60.70;10.93;;;13.60;99.90;;;;;;4930919;28;20202;-93
2021/09/12 03:55:43;;;;;;;13.10;9.03;;;13.70;99.90;;;;;;4937762;28;20191;-93
2021/09/12 03:58:09;;;;;;;74.87;12.30;;;13.60;99.90;;;;;;4931872;29;20191;-93
2021/09/12 04:00:34;;;;;;;14.73;8.27;;;13.70;99.90;;;;;;4929831;28;20446;-92
2021/09/12 04:03:00;;;;;;;61.03;11.50;;;13.70;99.90;;;;;;4927936;28;20251;-91
2021/09/12 04:05:26;;;;;;;34.57;10.33;;;13.70;99.90;;;;;;4929284;28;20195;-92
2021/09/12 04:07:52;;;;;;;57.23;10.57;;;13.70;99.90;;;;;;4927918;28;20229;-95
2021/09/12 04:10:20;;;;;;;56.60;9.00;;;13.70;99.90;;;;;;4930227;29;20191;-94
2021/09/12 04:12:48;;;;;;;28.37;8.17;;;13.60;99.90;;;;;;4939136;29;20225;-93
2021/09/12 04:15:14;;;;;;;40.53;8.90;;;13.60;99.90;;;;;;4931192;29;20438;-93
2021/09/12 04:17:39;;;;;;;21.87;8.37;;;13.60;99.90;;;;;;4930842;28;20532;-94
2021/09/12 04:20:06;;;;;;;21.50;8.80;;;13.60;99.90;;;;;;4934333;28;20290;-93
2021/09/12 04:22:32;;;;;;;34.33;9.10;;;13.60;99.90;;;;;;4926931;29;20598;-93
2021/09/12 04:24:57;;;;;;;10.63;7.93;;;13.50;99.90;;;;;;4926358;29;20446;-93
2021/09/12 04:27:23;;;;;;;26.00;7.87;;;13.60;99.90;;;;;;4926388;29;20247;-93
2021/09/12 04:29:49;;;;;;;42.83;7.77;;;13.50;99.90;;;;;;4929070;29;20194;-95
2021/09/12 04:32:14;;;;;;;45.63;9.07;;;13.50;99.90;;;;;;4934001;29;20186;-93
2021/09/12 04:34:43;;;;;;;62.97;9.23;;;13.40;99.90;;;;;;4930721;28;20331;-92
2021/09/12 04:37:08;;;;;;;30.60;7.77;;;13.40;99.90;;;;;;4932432;28;20199;-94
2021/09/12 04:39:34;;;;;;;43.40;8.77;;;13.30;99.90;;;;;;4931557;29;20482;-94
2021/09/12 04:42:05;;;;;;;45.77;8.80;;;13.30;99.90;;;;;;4925282;28;20196;-93
2021/09/12 04:44:31;;;;;;;18.97;7.60;;;13.30;99.90;;;;;;4928090;28;20502;-93
2021/09/12 04:46:56;;;;;;;36.87;7.70;;;13.30;99.90;;;;;;4934023;29;20907;-94
2021/09/12 04:49:22;;;;;;;36.07;7.87;;;13.30;99.90;;;;;;4927790;28;20330;-93
2021/09/12 04:51:48;;;;;;;6.60;5.90;;;13.20;99.90;;;;;;4930800;28;20212;-91
2021/09/12 04:54:16;;;;;;;8.40;6.03;;;13.20;99.90;;;;;;4926368;28;20191;-93
2021/09/12 04:56:42;;;;;;;7.83;6.40;;;13.30;99.90;;;;;;4921854;29;20565;-92
2021/09/12 04:59:07;;;;;;;16.03;6.40;;;13.30;99.90;;;;;;4925002;28;21401;-92
2021/09/12 05:01:33;;;;;;;16.23;6.83;;;13.30;99.90;;;;;;4924131;29;20199;-92
2021/09/12 05:04:00;;;;;;;34.70;6.77;;;13.30;99.90;;;;;;4923842;28;20195;-92
2021/09/12 05:06:26;;;;;;;22.63;6.73;;;13.20;99.90;;;;;;4922561;28;20210;-92
2021/09/12 05:08:51;;;;;;;27.83;6.87;;;13.30;99.90;;;;;;4925112;28;20466;-89
2021/09/12 05:11:17;;;;;;;33.20;7.20;;;13.30;99.90;;;;;;4921060;28;20210;-89
2021/09/12 05:13:43;;;;;;;18.17;7.20;;;13.30;99.90;;;;;;4924835;28;20194;-89
2021/09/12 05:16:09;;;;;;;50.10;8.53;;;13.30;99.90;;;;;;4919284;29;20441;-89
2021/09/12 05:21:12;;;;;;;12.17;7.10;;;13.20;99.90;;;;;;4936164;28;20187;-90
2021/09/12 05:23:40;;;;;;;17.63;7.93;;;13.30;99.90;;;;;;4922068;29;20466;-90
2021/09/12 05:26:05;;;;;;;26.33;7.30;;;13.40;99.90;;;;;;4924370;28;20465;-90
2021/09/12 05:28:31;;;;;;;26.47;7.77;;;13.40;99.90;;;;;;4918255;28;20292;-90
2021/09/12 05:30:57;;;;;;;17.53;7.57;;;13.40;99.90;;;;;;4925550;29;20194;-91
2021/09/12 05:33:22;;;;;;;34.53;9.23;;;13.40;99.90;;;;;;4926547;28;20197;-89
2021/09/12 05:35:48;;;;;;;88.30;10.77;;;13.30;99.90;;;;;;4917095;29;20688;-90
2021/09/12 05:38:14;;;;;;;26.17;8.80;;;13.30;99.90;;;;;;4928495;29;20187;-90
2021/09/12 05:40:39;;;;;;;14.77;7.40;;;13.40;99.90;;;;;;4931993;28;20645;-90
2021/09/12 05:43:05;;;;;;;33.50;9.10;;;13.40;99.90;;;;;;4930185;29;20233;-90
2021/09/12 05:45:31;;;;;;;26.73;7.87;;;13.60;99.90;;;;;;4930485;28;20683;-90
2021/09/12 05:47:57;;;;;;;25.03;7.63;;;13.50;99.90;;;;;;4928660;28;20219;-90
2021/09/12 05:50:23;;;;;;;35.07;8.53;;;13.50;99.90;;;;;;4927873;29;20189;-90
2021/09/12 05:52:49;;;;;;;18.90;8.03;;;13.60;99.90;;;;;;4928338;29;20446;-90
2021/09/12 05:55:14;;;;;;;26.10;7.60;;;13.50;99.90;;;;;;4927968;29;20937;-90
2021/09/12 05:57:40;;;;;;;46.77;8.90;;;13.50;99.90;;;;;;4926311;29;20226;-90
2021/09/12 06:00:07;;;;;;;25.73;7.80;;;13.60;99.90;;;;;;4929048;29;20183;-91
2021/09/12 06:02:41;;;;;;;19.27;7.60;;;13.50;99.90;;;;;;4926059;28;20195;-90
2021/09/12 06:05:08;;;;;;;7.70;6.57;;;13.60;99.90;;;;;;4930533;29;20477;-89
2021/09/12 06:07:33;;;;;;;76.37;10.33;;;13.70;99.90;;;;;;4923684;28;20482;-90
2021/09/12 06:09:59;;;;;;;26.17;7.70;;;13.70;99.90;;;;;;4924023;28;20427;-90
2021/09/12 06:12:25;;;;;;;75.77;9.70;;;13.70;99.90;;;;;;4925731;28;20530;-89
2021/09/12 06:14:51;;;;;;;45.47;7.50;;;13.60;99.90;;;;;;4930128;28;20194;-90
2021/09/12 06:17:17;;;;;;;14.50;6.93;;;13.60;99.90;;;;;;4929918;29;20952;-90
2021/09/12 06:19:43;;;;;;;73.80;10.93;;;13.60;99.90;;;;;;4925248;29;20763;-89
2021/09/12 06:22:08;;;;;;;41.00;9.80;;;13.70;99.90;;;;;;4929540;28;20202;-89
2021/09/12 06:24:34;;;;;;;14.87;7.10;;;13.70;99.90;;;;;;4928054;29;20402;-90
2021/09/12 06:27:00;;;;;;;67.23;11.70;;;13.80;99.90;;;;;;4930389;28;20336;-90
2021/09/12 06:29:27;;;;;;;47.30;8.30;;;13.90;99.90;;;;;;4926174;28;20262;-90
2021/09/12 06:31:53;;;;;;;56.90;9.87;;;14.10;99.90;;;;;;4924401;28;20442;-89
2021/09/12 06:34:19;;;;;;;54.30;9.50;;;14.10;99.90;;;;;;4930252;29;20954;-91
2021/09/12 06:36:44;;;;;;;62.97;9.10;;;14.10;99.90;;;;;;4923441;29;20203;-91
2021/09/12 06:39:10;;;;;;;115.00;11.90;;;14.10;99.90;;;;;;4933253;28;20441;-91
2021/09/12 06:41:38;;;;;;;32.17;7.87;;;14.10;99.90;;;;;;4920535;29;20245;-89
2021/09/12 06:44:04;;;;;;;36.20;8.40;;;14.10;99.90;;;;;;4928442;28;20199;-87
2021/09/12 06:46:30;;;;;;;66.30;11.03;;;14.30;99.90;;;;;;4928682;28;20521;-89
2021/09/12 06:48:56;;;;;;;63.63;10.00;;;14.40;99.90;;;;;;4924665;29;21646;-88
2021/09/12 06:51:21;;;;;;;61.20;9.13;;;14.40;99.90;;;;;;4928175;28;20275;-88
2021/09/12 06:53:47;;;;;;;44.77;8.50;;;14.50;99.90;;;;;;4930343;28;20214;-88
2021/09/12 06:56:13;;;;;;;94.03;10.97;;;14.30;99.90;;;;;;4925191;28;20191;-88
2021/09/12 06:58:38;;;;;;;47.13;9.40;;;14.20;99.90;;;;;;4925095;28;20203;-89
2021/09/12 07:01:04;;;;;;;40.17;8.63;;;14.30;99.90;;;;;;4928645;29;20547;-88
2021/09/12 07:03:30;;;;;;;13.93;8.10;;;14.50;99.90;;;;;;4927674;28;21283;-87
2021/09/12 07:05:55;;;;;;;8.53;6.70;;;14.50;99.90;;;;;;4927201;28;20728;-88
2021/09/12 07:08:21;;;;;;;71.57;9.93;;;14.70;99.90;;;;;;4926201;29;20229;-89
2021/09/12 07:10:47;;;;;;;56.37;9.70;;;14.70;99.90;;;;;;4929971;28;20662;-88
2021/09/12 07:13:12;;;;;;;30.47;8.33;;;14.70;99.90;;;;;;4929130;28;20198;-89
2021/09/12 07:15:38;;;;;;;14.50;7.40;;;14.80;99.90;;;;;;4929898;28;20249;-90
2021/09/12 07:18:04;;;;;;;19.73;8.17;;;14.90;99.90;;;;;;4929999;28;20200;-89
2021/09/12 07:20:30;;;;;;;23.73;7.97;;;14.80;99.90;;;;;;4929360;28;20190;-88
2021/09/12 07:22:55;;;;;;;70.23;10.10;;;14.90;99.90;;;;;;4921282;28;20199;-89
2021/09/12 07:25:21;;;;;;;46.13;9.27;;;15.10;99.90;;;;;;4933391;28;20237;-88
2021/09/12 07:27:48;;;;;;;10.70;7.00;;;15.00;99.90;;;;;;4928084;28;20690;-91
2021/09/12 07:30:14;;;;;;;31.17;18.17;;;15.10;99.90;;;;;;4930120;28;20555;-89
2021/09/12 07:32:41;;;;;;;21.10;9.53;;;15.00;99.90;;;;;;4922460;28;20447;-88
2021/09/12 07:35:07;;;;;;;25.20;12.47;;;15.10;99.90;;;;;;4927308;29;20463;-90
2021/09/12 07:37:36;;;;;;;29.70;21.63;;;15.10;99.90;;;;;;4942038;28;20539;-89
2021/09/12 07:40:05;;;;;;;14.93;8.60;;;15.30;99.90;;;;;;4949663;28;20457;-90
2021/09/12 07:42:34;;;;;;;45.33;9.73;;;15.30;99.90;;;;;;4926525;28;20431;-89
2021/09/12 07:44:59;;;;;;;7.27;6.53;;;15.40;99.90;;;;;;4930344;29;20815;-89
2021/09/12 07:47:25;;;;;;;7.67;6.97;;;15.40;99.90;;;;;;4930995;28;20484;-90
2021/09/12 07:49:51;;;;;;;20.30;7.70;;;15.50;99.90;;;;;;4932960;28;20222;-91
2021/09/12 07:52:16;;;;;;;9.93;7.20;;;15.60;99.90;;;;;;4931633;29;20215;-91
2021/09/12 07:54:45;;;;;;;9.97;6.87;;;15.70;99.90;;;;;;4947446;28;20187;-91
2021/09/12 07:57:11;;;;;;;10.53;6.80;;;15.80;99.90;;;;;;4933310;28;20239;-90
2021/09/12 07:59:37;;;;;;;8.67;7.40;;;15.90;99.90;;;;;;4931698;28;20533;-90
2021/09/12 08:02:02;;;;;;;8.10;7.40;;;16.00;99.90;;;;;;4933179;28;20521;-91
2021/09/12 08:04:31;;;;;;;8.03;7.33;;;16.00;99.90;;;;;;4927200;28;20679;-90
2021/09/12 08:06:57;;;;;;;11.27;7.20;;;16.10;99.90;;;;;;4931493;28;20628;-92
2021/09/12 08:09:22;;;;;;;7.47;6.87;;;16.20;99.90;;;;;;4935954;29;20457;-94
2021/09/12 08:11:51;;;;;;;8.63;7.53;;;16.20;99.90;;;;;;4933296;29;20198;-93
2021/09/12 08:14:21;;;;;;;7.97;7.27;;;16.40;99.90;;;;;;4931508;28;20217;-93
2021/09/12 08:17:02;;;;;;;8.60;7.80;;;16.60;99.90;;;;;;4951361;28;20469;-93
2021/09/12 08:19:30;;;;;;;8.27;7.60;;;16.80;99.90;;;;;;4934641;29;20442;-90
2021/09/12 08:21:59;;;;;;;8.67;7.87;;;17.10;99.90;;;;;;4943427;28;20447;-93
2021/09/12 08:24:34;;;;;;;8.23;7.43;;;17.10;99.90;;;;;;4945710;28;20505;-94
2021/09/12 08:27:00;;;;;;;8.70;7.90;;;17.10;99.90;;;;;;4935079;28;21006;-93
2021/09/12 08:29:26;;;;;;;8.47;7.67;;;17.20;99.90;;;;;;4932514;29;20188;-94
2021/09/12 08:31:52;;;;;;;8.20;7.50;;;17.20;99.90;;;;;;4936985;28;20470;-91
2021/09/12 08:34:22;;;;;;;9.30;8.60;;;17.30;99.90;;;;;;4933773;29;20205;-90
2021/09/12 08:36:47;;;;;;;8.00;7.40;;;17.30;99.90;;;;;;4930053;28;20188;-91
2021/09/12 08:39:13;;;;;;;8.07;7.37;;;17.60;99.90;;;;;;4937436;28;20449;-90
2021/09/12 08:41:39;;;;;;;8.20;7.47;;;17.70;99.90;;;;;;4923166;28;20305;-90
2021/09/12 08:44:06;;;;;;;6.90;6.40;;;18.00;99.90;;;;;;4930160;29;20213;-91
2021/09/12 08:46:32;;;;;;;7.83;7.23;;;18.10;99.90;;;;;;4954627;28;20235;-90
2021/09/12 08:48:57;;;;;;;7.07;6.50;;;18.30;99.90;;;;;;4937687;28;20541;-92
2021/09/12 08:51:24;;;;;;;7.07;6.47;;;18.40;99.90;;;;;;4931802;29;20183;-90
2021/09/12 08:53:50;;;;;;;8.00;7.30;;;18.60;99.90;;;;;;4928143;28;20223;-88
2021/09/12 08:56:16;;;;;;;7.50;6.90;;;18.60;99.90;;;;;;4927718;29;20442;-90
2021/09/12 08:58:42;;;;;;;7.27;6.67;;;18.40;99.90;;;;;;4930966;28;20497;-90
2021/09/12 09:01:07;;;;;;;7.13;6.50;;;18.70;99.90;;;;;;4930144;28;20271;-93
2021/09/12 09:03:35;;;;;;;6.73;6.23;;;19.00;99.90;;;;;;4928973;28;20199;-90
2021/09/12 09:06:14;;;;;;;5.80;5.40;;;19.20;99.90;;;;;;4927478;28;20680;-90
2021/09/12 09:08:57;;;;;;;6.80;6.20;;;19.50;99.90;;;;;;4933482;29;20454;-92
2021/09/12 09:11:35;;;;;;;6.67;6.07;;;20.00;99.90;;;;;;4947168;28;20799;-91
2021/09/12 09:14:18;;;;;;;5.93;5.50;;;20.30;99.90;;;;;;4923407;29;20866;-91
2021/09/12 09:16:46;;;;;;;6.07;5.57;;;20.30;99.90;;;;;;4934140;28;20457;-91
2021/09/12 09:19:12;;;;;;;5.60;5.03;;;20.00;99.90;;;;;;4928601;28;20530;-91
2021/09/12 09:21:49;;;;;;;4.57;4.27;;;20.00;99.90;;;;;;4928043;29;20439;-95
2021/09/12 09:27:10;;;;;;;6.03;5.53;;;20.10;99.90;;;;;;5401568;23;21686;-95
2021/09/12 09:29:36;;;;;;;6.43;4.63;;;20.20;99.90;;;;;;4932497;29;20948;-94
2021/09/12 09:32:13;;;;;;;5.13;4.70;;;20.50;99.90;;;;;;4933021;29;20206;-95
2021/09/12 09:34:41;;;;;;;5.60;5.10;;;20.60;99.90;;;;;;4933512;29;20466;-94
2021/09/12 09:37:16;;;;;;;5.10;4.80;;;21.00;99.90;;;;;;4931376;28;20473;-95
2021/09/12 09:39:45;;;;;;;4.90;4.50;;;21.10;99.90;;;;;;4927020;29;20479;-93
2021/09/12 09:42:46;;;;;;;5.00;4.60;;;21.00;99.90;;;;;;4934304;29;20443;-95
2021/09/12 09:45:16;;;;;;;5.60;5.20;;;20.30;99.90;;;;;;4896524;29;20976;-93
2021/09/12 09:47:44;;;;;;;6.07;5.57;;;20.00;99.90;;;;;;4941457;29;20562;-91
2021/09/12 09:50:42;;;;;;;4.67;4.37;;;20.30;99.90;;;;;;4932025;29;20438;-94
2021/09/12 09:53:12;;;;;;;4.03;3.73;;;20.40;99.90;;;;;;4955002;29;20533;-96
2021/09/12 09:55:53;;;;;;;4.63;4.23;;;20.20;99.90;;;;;;4933720;29;20447;-93
2021/09/12 09:58:43;;;;;;;4.50;4.10;;;20.50;99.90;;;;;;4926385;29;20450;-96
2021/09/12 10:01:20;;;;;;;4.13;3.83;;;20.70;99.90;;;;;;4941272;29;20449;-93
2021/09/12 10:03:46;;;;;;;4.20;3.90;;;20.60;99.90;;;;;;4935180;29;20446;-95
2021/09/12 10:06:12;;;;;;;5.17;4.77;;;20.60;99.90;;;;;;4935468;29;20199;-95
2021/09/12 10:08:38;;;;;;;5.40;5.00;;;20.50;99.90;;;;;;4933860;29;20500;-95
2021/09/12 10:11:04;;;;;;;5.20;4.60;;;20.40;99.90;;;;;;4932370;29;20563;-96
2021/09/12 10:13:31;;;;;;;5.50;4.27;;;20.70;99.90;;;;;;4934670;29;20435;-94
2021/09/12 10:15:58;;;;;;;4.00;3.60;;;20.60;99.90;;;;;;4933558;29;20493;-95
2021/09/12 10:18:26;;;;;;;2.80;2.60;;;21.10;99.90;;;;;;4948375;29;20446;-96
2021/09/12 10:20:54;;;;;;;3.80;3.50;;;21.90;99.90;;;;;;4944088;29;20493;-96
2021/09/12 10:23:35;;;;;;;3.07;2.87;;;22.50;99.90;;;;;;4938727;29;20494;-94
2021/09/12 10:26:01;;;;;;;3.20;3.00;;;22.90;99.90;;;;;;4941535;29;20454;-95
2021/09/12 10:28:34;;;;;;;3.70;3.40;;;23.30;98.20;;;;;;4920522;29;20497;-94
2021/09/12 10:31:20;;;;;;;3.50;3.20;;;23.50;97.70;;;;;;4941316;29;20465;-96
2021/09/12 10:34:04;;;;;;;3.40;3.10;;;23.40;98.60;;;;;;4938378;29;20455;-96
2021/09/12 10:36:30;;;;;;;3.07;2.80;;;23.10;98.10;;;;;;4935074;29;20443;-96
2021/09/12 10:38:56;;;;;;;3.33;3.13;;;23.20;98.50;;;;;;4937921;29;20437;-96
2021/09/12 10:41:26;;;;;;;3.50;3.30;;;23.20;99.50;;;;;;4941648;29;20234;-96
2021/09/12 10:43:52;;;;;;;2.97;2.77;;;23.30;99.90;;;;;;4942155;29;20297;-96
2021/09/12 10:46:18;;;;;;;3.33;2.50;;;22.90;99.90;;;;;;4945664;29;20438;-96
2021/09/12 10:49:02;;;;;;;2.60;2.50;;;22.70;97.50;;;;;;4939572;29;20446;-96
2021/09/12 10:51:34;;;;;;;3.00;2.80;;;22.80;97.80;;;;;;4932219;29;20451;-96
2021/09/12 10:54:01;;;;;;;2.90;2.70;;;22.60;99.30;;;;;;4938974;29;20445;-96
2021/09/12 10:56:28;;;;;;;2.90;2.70;;;22.90;99.20;;;;;;4932547;29;20439;-95
2021/09/12 10:59:01;;;;;;;2.83;2.63;;;22.80;97.40;;;;;;4936123;29;20473;-95
2021/09/12 11:01:29;;;;;;;3.43;2.77;;;22.40;97.50;;;;;;4935798;29;20455;-96
2021/09/12 11:03:57;;;;;;;3.23;2.87;;;22.00;98.60;;;;;;4935665;29;20435;-96
2021/09/12 11:06:23;;;;;;;2.43;2.27;;;22.00;97.80;;;;;;4936811;29;20442;-96
2021/09/12 11:08:49;;;;;;;2.77;2.57;;;22.40;96.60;;;;;;4935369;29;20559;-95
2021/09/12 11:11:15;;;;;;;2.40;2.30;;;22.50;96.70;;;;;;4932170;29;20462;-96
2021/09/12 11:13:41;;;;;;;3.23;2.27;;;22.60;97.50;;;;;;4934785;29;20187;-96
2021/09/12 11:16:18;;;;;;;2.50;2.33;;;22.50;97.60;;;;;;4937834;29;20450;-96
2021/09/12 11:18:45;;;;;;;2.57;2.40;;;22.20;97.20;;;;;;4925835;29;20187;-95
2021/09/12 11:21:11;;;;;;;2.17;2.07;;;22.40;96.90;;;;;;4939343;29;20857;-95
2021/09/12 11:23:38;;;;;;;2.33;2.13;;;22.40;96.60;;;;;;4938802;29;20434;-96
2021/09/12 11:26:04;;;;;;;2.90;2.30;;;23.20;96.00;;;;;;4936683;29;20251;-96
2021/09/12 11:28:33;;;;;;;4.03;2.60;;;23.60;96.90;;;;;;4936872;29;20511;-96
2021/09/12 11:31:00;;;;;;;5.40;2.30;;;23.80;96.70;;;;;;4939357;29;20493;-96
2021/09/12 11:33:50;;;;;;;2.70;2.50;;;24.00;96.10;;;;;;4940010;29;20423;-95
2021/09/12 11:36:18;;;;;;;3.07;2.87;;;24.20;94.80;;;;;;4940787;29;20462;-95
2021/09/12 11:38:56;;;;;;;4.43;2.53;;;24.30;96.10;;;;;;4940098;29;20431;-95
2021/09/12 11:41:24;;;;;;;2.67;2.50;;;24.20;97.00;;;;;;4942120;29;20481;-96
2021/09/12 11:43:58;;;;;;;2.40;2.20;;;24.20;97.10;;;;;;4945680;29;20443;-93
2021/09/12 11:46:25;;;;;;;2.33;2.23;;;24.60;93.90;;;;;;4946026;29;20464;-94
2021/09/12 11:49:06;;;;;;;3.33;2.77;;;24.90;96.20;;;;;;4952067;29;20431;-96
2021/09/12 11:51:34;;;;;;;2.80;2.50;;;25.00;92.40;;;;;;4947281;29;20447;-96
2021/09/12 11:54:17;;;;;;;3.80;2.73;;;24.90;93.20;;;;;;4944138;29;20446;-95
2021/09/12 11:56:52;;;;;;;3.20;2.27;;;24.80;94.20;;;;;;4945106;29;20534;-96
2021/09/12 11:59:18;;;;;;;2.30;2.10;;;24.00;94.30;;;;;;4940384;29;20457;-95
2021/09/12 12:01:48;;;;;;;3.07;2.87;;;24.00;95.00;;;;;;4939800;29;20466;-96
2021/09/12 12:04:15;;;;;;;2.93;2.50;;;24.20;96.50;;;;;;4935696;29;20641;-94
2021/09/12 12:06:45;;;;;;;2.43;2.30;;;24.30;95.30;;;;;;4939036;29;20466;-95
2021/09/12 12:09:25;;;;;;;2.77;2.57;;;24.40;94.20;;;;;;4939747;29;20519;-96
2021/09/12 12:11:50;;;;;;;3.30;3.00;;;24.40;93.50;;;;;;4937562;29;20447;-95
2021/09/12 12:14:24;;;;;;;2.90;2.70;;;23.90;94.20;;;;;;4941263;29;20442;-96
2021/09/12 12:16:52;;;;;;;2.40;2.30;;;24.50;93.90;;;;;;4940034;29;20183;-95
2021/09/12 12:19:19;;;;;;;2.60;2.40;;;24.90;94.70;;;;;;4939638;29;20529;-96
2021/09/12 12:21:47;;;;;;;2.50;2.30;;;25.20;94.40;;;;;;4940975;29;20452;-96
2021/09/12 12:24:19;;;;;;;2.80;2.60;;;25.40;93.70;;;;;;4940771;28;20438;-96
2021/09/12 12:26:57;;;;;;;2.10;2.00;;;25.20;94.10;;;;;;5002080;23;20492;-96
2021/09/12 12:29:33;;;;;;;3.23;2.93;;;25.00;94.20;;;;;;4912659;29;20464;-96
2021/09/12 12:32:05;;;;;;;3.80;2.83;;;25.10;94.10;;;;;;4917124;29;20587;-96
2021/09/12 12:34:40;;;;;;;3.17;2.97;;;25.00;93.70;;;;;;4917530;29;20526;-96
2021/09/12 12:39:40;;;;;;;2.70;2.50;;;25.20;93.60;;;;;;4927382;29;20437;-96
2021/09/12 12:42:07;;;;;;;2.67;2.57;;;25.70;93.40;;;;;;4910687;29;20458;-95
2021/09/12 12:44:44;;;;;;;2.83;2.60;;;25.90;94.10;;;;;;4914920;29;20475;-96
2021/09/12 12:47:12;;;;;;;2.70;2.50;;;25.90;93.40;;;;;;4923890;29;20573;-96
2021/09/12 12:52:15;;;;;;;3.27;2.60;;;25.80;93.70;;;;;;4927141;29;20444;-95